sensor_id;sensor_type;location;lat;lon;timestamp;pressure;altitude;pressure_sealevel;temperature;humidity
23619;BME280;18207;32.078;34.818;2022-09-23T00:00:59;100533.53;;;32.16;39.91
23619;BME280;18207;32.078;34.818;2022-09-23T00:03:31;100535.56;;;32.16;40.49
23619;BME280;18207;32.078;34.818;2022-09-23T00:06:06;100543.31;;;32.15;39.84
23619;BME280;18207;32.078;34.818;2022-09-23T00:08:38;100540.88;;;32.14;39.90
23619;BME280;18207;32.078;34.818;2022-09-23T00:11:12;100541.31;;;32.12;40.35
23619;BME280;18207;32.078;34.818;2022-09-23T00:13:45;100545.38;;;32.11;40.05
23619;BME280;18207;32.078;34.818;2022-09-23T00:16:22;100545.81;;;32.06;40.21
23619;BME280;18207;32.078;34.818;2022-09-23T00:18:52;100542.97;;;32.03;40.07
23619;BME280;18207;32.078;34.818;2022-09-23T00:21:23;100548.28;;;32.01;39.99
23619;BME280;18207;32.078;34.818;2022-09-23T00:23:54;100544.22;;;31.98;40.58
23619;BME280;18207;32.078;34.818;2022-09-23T00:26:25;100544.22;;;31.98;40.50
23619;BME280;18207;32.078;34.818;2022-09-23T00:28:56;100539.75;;;31.97;40.50
23619;BME280;18207;32.078;34.818;2022-09-23T00:31:29;100544.22;;;31.98;40.58
23619;BME280;18207;32.078;34.818;2022-09-23T00:34:01;100544.22;;;31.98;40.79
23619;BME280;18207;32.078;34.818;2022-09-23T00:36:31;100538.94;;;32.00;40.57
23619;BME280;18207;32.078;34.818;2022-09-23T00:39:03;100534.84;;;32.01;40.06
23619;BME280;18207;32.078;34.818;2022-09-23T00:41:34;100534.44;;;32.03;40.32
23619;BME280;18207;32.078;34.818;2022-09-23T00:44:43;100538.94;;;32.00;40.40
23619;BME280;18207;32.078;34.818;2022-09-23T00:47:23;100533.69;;;31.95;40.17
23619;BME280;18207;32.078;34.818;2022-09-23T00:50:02;100537.38;;;31.92;40.22
23619;BME280;18207;32.078;34.818;2022-09-23T00:52:37;100535.78;;;31.88;40.43
23619;BME280;18207;32.078;34.818;2022-09-23T00:55:15;100538.63;;;31.88;40.80
23619;BME280;18207;32.078;34.818;2022-09-23T00:57:47;100539.06;;;31.86;40.65
23619;BME280;18207;32.078;34.818;2022-09-23T01:00:18;100537.44;;;31.85;40.42
23619;BME280;18207;32.078;34.818;2022-09-23T01:02:51;100542.69;;;31.87;40.42
23619;BME280;18207;32.078;34.818;2022-09-23T01:05:22;100535.38;;;31.86;40.33
23619;BME280;18207;32.078;34.818;2022-09-23T01:07:55;100541.06;;;31.86;40.73
23619;BME280;18207;32.078;34.818;2022-09-23T01:10:36;100547.16;;;31.88;40.42
23619;BME280;18207;32.078;34.818;2022-09-23T01:13:23;100542.25;;;31.88;40.39
23619;BME280;18207;32.078;34.818;2022-09-23T01:16:05;100546.72;;;31.89;40.30
23619;BME280;18207;32.078;34.818;2022-09-23T01:18:47;100555.25;;;31.89;40.41
23619;BME280;18207;32.078;34.818;2022-09-23T01:21:41;100561.34;;;31.91;40.81
23619;BME280;18207;32.078;34.818;2022-09-23T01:24:57;100558.94;;;31.90;40.45
23619;BME280;18207;32.078;34.818;2022-09-23T01:27:56;100564.19;;;31.91;40.53
23619;BME280;18207;32.078;34.818;2022-09-23T01:30:44;100565.81;;;31.92;40.83
23619;BME280;18207;32.078;34.818;2022-09-23T01:33:26;100565.38;;;31.94;40.33
23619;BME280;18207;32.078;34.818;2022-09-23T01:36:10;100564.16;;;31.95;40.36
23619;BME280;18207;32.078;34.818;2022-09-23T01:38:55;100563.75;;;31.96;40.80
23619;BME280;18207;32.078;34.818;2022-09-23T01:41:47;100561.72;;;31.97;40.84
23619;BME280;18207;32.078;34.818;2022-09-23T01:44:27;100568.63;;;31.96;40.78
23619;BME280;18207;32.078;34.818;2022-09-23T01:47:07;100571.03;;;31.97;40.40
23619;BME280;18207;32.078;34.818;2022-09-23T01:49:50;100559.66;;;31.97;40.94
23619;BME280;18207;32.078;34.818;2022-09-23T01:52:30;100571.03;;;31.97;40.94
23619;BME280;18207;32.078;34.818;2022-09-23T01:55:13;100567.38;;;31.97;40.71
23619;BME280;18207;32.078;34.818;2022-09-23T01:57:53;100572.28;;;31.96;40.81
23619;BME280;18207;32.078;34.818;2022-09-23T02:00:33;100576.34;;;31.95;40.69
23619;BME280;18207;32.078;34.818;2022-09-23T02:03:16;100570.25;;;31.93;40.60
23619;BME280;18207;32.078;34.818;2022-09-23T02:05:53;100572.28;;;31.93;40.52
23619;BME280;18207;32.078;34.818;2022-09-23T02:08:33;100569.44;;;31.93;40.37
23619;BME280;18207;32.078;34.818;2022-09-23T02:11:09;100571.91;;;31.91;41.10
23619;BME280;18207;32.078;34.818;2022-09-23T02:13:48;100573.13;;;31.90;40.84
23619;BME280;18207;32.078;34.818;2022-09-23T02:16:27;100571.91;;;31.87;40.94
23619;BME280;18207;32.078;34.818;2022-09-23T02:19:07;100578.84;;;31.86;40.59
23619;BME280;18207;32.078;34.818;2022-09-23T02:21:44;100584.53;;;31.86;40.73
23619;BME280;18207;32.078;34.818;2022-09-23T02:24:19;100584.94;;;31.85;40.93
23619;BME280;18207;32.078;34.818;2022-09-23T02:26:58;100589.00;;;31.84;41.14
23619;BME280;18207;32.078;34.818;2022-09-23T02:29:44;100596.75;;;31.83;40.37
23619;BME280;18207;32.078;34.818;2022-09-23T02:32:22;100608.13;;;31.80;40.41
23619;BME280;18207;32.078;34.818;2022-09-23T02:35:07;100606.50;;;31.79;41.09
23619;BME280;18207;32.078;34.818;2022-09-23T02:37:48;100613.41;;;31.78;40.61
23619;BME280;18207;32.078;34.818;2022-09-23T02:40:26;100616.69;;;31.76;41.16
23619;BME280;18207;32.078;34.818;2022-09-23T02:43:07;100620.75;;;31.75;41.10
23619;BME280;18207;32.078;34.818;2022-09-23T02:45:40;100621.53;;;31.76;41.20
23619;BME280;18207;32.078;34.818;2022-09-23T02:48:26;100635.34;;;31.77;40.99
23619;BME280;18207;32.078;34.818;2022-09-23T02:51:01;100634.53;;;31.77;41.27
23619;BME280;18207;32.078;34.818;2022-09-23T02:53:32;100635.34;;;31.77;41.04
23619;BME280;18207;32.078;34.818;2022-09-23T02:56:15;100639.81;;;31.78;41.25
23619;BME280;18207;32.078;34.818;2022-09-23T02:58:47;100643.88;;;31.77;40.69
23619;BME280;18207;32.078;34.818;2022-09-23T03:01:35;100643.50;;;31.75;40.84
23619;BME280;18207;32.078;34.818;2022-09-23T03:04:16;100639.81;;;31.75;40.97
23619;BME280;18207;32.078;34.818;2022-09-23T03:07:00;100643.09;;;31.73;41.32
23619;BME280;18207;32.078;34.818;2022-09-23T03:09:39;100641.03;;;31.74;40.88
23619;BME280;18207;32.078;34.818;2022-09-23T03:12:18;100647.16;;;31.72;40.93
23619;BME280;18207;32.078;34.818;2022-09-23T03:15:00;100649.19;;;31.72;40.83
23619;BME280;18207;32.078;34.818;2022-09-23T03:17:41;100656.91;;;31.71;41.52
23619;BME280;18207;32.078;34.818;2022-09-23T03:20:25;100655.28;;;31.70;41.42
23619;BME280;18207;32.078;34.818;2022-09-23T03:23:04;100658.13;;;31.70;41.33
23619;BME280;18207;32.078;34.818;2022-09-23T03:25:39;100656.91;;;31.68;41.33
23619;BME280;18207;32.078;34.818;2022-09-23T03:28:16;100654.09;;;31.64;41.15
23619;BME280;18207;32.078;34.818;2022-09-23T03:30:50;100661.44;;;31.62;41.58
23619;BME280;18207;32.078;34.818;2022-09-23T03:33:24;100662.66;;;31.61;41.21
23619;BME280;18207;32.078;34.818;2022-09-23T03:36:01;100657.78;;;31.58;41.15
23619;BME280;18207;32.078;34.818;2022-09-23T03:38:59;100677.25;;;31.52;41.16
23619;BME280;18207;32.078;34.818;2022-09-23T03:41:35;100661.88;;;31.46;41.09
23619;BME280;18207;32.078;34.818;2022-09-23T03:44:09;100670.38;;;31.43;41.47
23619;BME280;18207;32.078;34.818;2022-09-23T03:46:40;100663.91;;;31.42;41.43
23619;BME280;18207;32.078;34.818;2022-09-23T03:49:24;100671.63;;;31.42;41.05
23619;BME280;18207;32.078;34.818;2022-09-23T03:51:57;100670.41;;;31.39;41.46
23619;BME280;18207;32.078;34.818;2022-09-23T03:54:32;100672.84;;;31.41;41.08
23619;BME280;18207;32.078;34.818;2022-09-23T03:57:03;100674.84;;;31.40;41.73
23619;BME280;18207;32.078;34.818;2022-09-23T03:59:34;100673.25;;;31.39;41.32
23619;BME280;18207;32.078;34.818;2022-09-23T04:02:05;100673.25;;;31.39;41.46
23619;BME280;18207;32.078;34.818;2022-09-23T04:04:37;100672.44;;;31.39;41.63
23619;BME280;18207;32.078;34.818;2022-09-23T04:07:09;100677.28;;;31.38;41.24
23619;BME280;18207;32.078;34.818;2022-09-23T04:09:43;100676.91;;;31.40;41.68
23619;BME280;18207;32.078;34.818;2022-09-23T04:12:15;100681.75;;;31.39;41.39
23619;BME280;18207;32.078;34.818;2022-09-23T04:14:46;100683.81;;;31.39;41.86
23619;BME280;18207;32.078;34.818;2022-09-23T04:17:17;100691.09;;;31.40;42.05
23619;BME280;18207;32.078;34.818;2022-09-23T04:19:47;100696.38;;;31.41;41.65
23619;BME280;18207;32.078;34.818;2022-09-23T04:22:18;100700.41;;;31.44;41.58
23619;BME280;18207;32.078;34.818;2022-09-23T04:24:52;100695.53;;;31.48;41.90
23619;BME280;18207;32.078;34.818;2022-09-23T04:27:23;100700.00;;;31.52;41.55
23619;BME280;18207;32.078;34.818;2022-09-23T04:29:54;100706.53;;;31.56;42.17
23619;BME280;18207;32.078;34.818;2022-09-23T04:32:25;100703.66;;;31.60;41.51
23619;BME280;18207;32.078;34.818;2022-09-23T04:34:56;100706.47;;;31.63;42.05
23619;BME280;18207;32.078;34.818;2022-09-23T04:37:26;100710.09;;;31.67;41.68
23619;BME280;18207;32.078;34.818;2022-09-23T04:40:00;100705.22;;;31.71;42.24
23619;BME280;18207;32.078;34.818;2022-09-23T04:42:31;100708.88;;;31.75;42.17
23619;BME280;18207;32.078;34.818;2022-09-23T04:45:02;100703.97;;;31.79;42.10
23619;BME280;18207;32.078;34.818;2022-09-23T04:47:33;100699.88;;;31.84;42.22
23619;BME280;18207;32.078;34.818;2022-09-23T04:50:05;100713.69;;;31.89;42.04
23619;BME280;18207;32.078;34.818;2022-09-23T04:52:35;100715.28;;;31.93;42.35
23619;BME280;18207;32.078;34.818;2022-09-23T04:55:10;100716.88;;;31.98;42.20
23619;BME280;18207;32.078;34.818;2022-09-23T04:57:41;100715.63;;;32.02;42.13
23619;BME280;18207;32.078;34.818;2022-09-23T05:00:13;100718.91;;;32.08;41.96
23619;BME280;18207;32.078;34.818;2022-09-23T05:02:46;100716.81;;;32.12;41.71
23619;BME280;18207;32.078;34.818;2022-09-23T05:05:18;100718.81;;;32.18;42.23
23619;BME280;18207;32.078;34.818;2022-09-23T05:07:54;100725.28;;;32.25;41.90
23619;BME280;18207;32.078;34.818;2022-09-23T05:10:27;100728.50;;;32.31;42.01
23619;BME280;18207;32.078;34.818;2022-09-23T05:12:58;100733.75;;;32.36;42.27
23619;BME280;18207;32.078;34.818;2022-09-23T05:15:28;100732.09;;;32.42;42.32
23619;BME280;18207;32.078;34.818;2022-09-23T05:17:59;100735.31;;;32.47;41.98
23619;BME280;18207;32.078;34.818;2022-09-23T05:20:30;100728.75;;;32.54;42.28
23619;BME280;18207;32.078;34.818;2022-09-23T05:23:01;100739.72;;;32.59;41.83
23619;BME280;18207;32.078;34.818;2022-09-23T05:25:34;100737.66;;;32.63;42.38
23619;BME280;18207;32.078;34.818;2022-09-23T05:28:05;100738.44;;;32.67;42.42
23619;BME280;18207;32.078;34.818;2022-09-23T05:30:36;100743.28;;;32.73;41.80
23619;BME280;18207;32.078;34.818;2022-09-23T05:33:07;100750.94;;;32.80;41.96
23619;BME280;18207;32.078;34.818;2022-09-23T05:35:38;100749.25;;;32.86;42.23
23619;BME280;18207;32.078;34.818;2022-09-23T05:38:09;100749.22;;;32.93;41.69
23619;BME280;18207;32.078;34.818;2022-09-23T05:40:40;100741.84;;;32.99;41.66
23619;BME280;18207;32.078;34.818;2022-09-23T05:43:11;100750.75;;;33.04;41.92
23619;BME280;18207;32.078;34.818;2022-09-23T05:45:42;100746.63;;;33.09;41.49
23619;BME280;18207;32.078;34.818;2022-09-23T05:48:13;100744.22;;;33.11;41.61
23619;BME280;18207;32.078;34.818;2022-09-23T05:50:49;100742.53;;;33.13;41.96
23619;BME280;18207;32.078;34.818;2022-09-23T05:53:20;100752.28;;;33.15;42.01
23619;BME280;18207;32.078;34.818;2022-09-23T05:55:52;100747.38;;;33.19;41.48
23619;BME280;18207;32.078;34.818;2022-09-23T05:58:24;100753.06;;;33.19;41.82
23619;BME280;18207;32.078;34.818;2022-09-23T06:00:55;100757.53;;;33.20;41.46
23619;BME280;18207;32.078;34.818;2022-09-23T06:03:26;100755.88;;;33.23;41.50
23619;BME280;18207;32.078;34.818;2022-09-23T06:05:56;100759.53;;;33.27;41.55
23619;BME280;18207;32.078;34.818;2022-09-23T06:08:26;100765.19;;;33.30;41.95
23619;BME280;18207;32.078;34.818;2022-09-23T06:11:06;100770.00;;;33.37;41.83
23619;BME280;18207;32.078;34.818;2022-09-23T06:13:38;100766.25;;;33.43;41.88
23619;BME280;18207;32.078;34.818;2022-09-23T06:16:11;100764.97;;;33.51;41.89
23619;BME280;18207;32.078;34.818;2022-09-23T06:18:43;100767.72;;;33.58;41.97
23619;BME280;18207;32.078;34.818;2022-09-23T06:21:16;100759.56;;;33.64;41.45
23619;BME280;18207;32.078;34.818;2022-09-23T06:23:47;100761.50;;;33.70;41.90
23619;BME280;18207;32.078;34.818;2022-09-23T06:26:24;100754.94;;;33.77;41.74
23619;BME280;18207;32.078;34.818;2022-09-23T06:29:01;100759.72;;;33.83;41.73
23619;BME280;18207;32.078;34.818;2022-09-23T06:31:33;100761.66;;;33.90;41.88
23619;BME280;18207;32.078;34.818;2022-09-23T06:34:04;100752.59;;;33.98;41.61
23619;BME280;18207;32.078;34.818;2022-09-23T06:36:40;100764.31;;;34.07;41.78
23619;BME280;18207;32.078;34.818;2022-09-23T06:39:14;100769.09;;;34.17;41.36
23619;BME280;18207;32.078;34.818;2022-09-23T06:41:47;100760.03;;;34.25;41.72
23619;BME280;18207;32.078;34.818;2022-09-23T06:44:17;100757.44;;;34.34;41.62
23619;BME280;18207;32.078;34.818;2022-09-23T06:46:49;100759.34;;;34.44;41.33
23619;BME280;18207;32.078;34.818;2022-09-23T06:49:20;100757.97;;;34.52;41.40
23619;BME280;18207;32.078;34.818;2022-09-23T06:51:51;100761.94;;;34.62;41.07
23619;BME280;18207;32.078;34.818;2022-09-23T06:54:23;100756.47;;;34.71;40.89
23619;BME280;18207;32.078;34.818;2022-09-23T06:56:57;100758.81;;;34.79;40.79
23619;BME280;18207;32.078;34.818;2022-09-23T06:59:28;100765.28;;;34.83;40.54
23619;BME280;18207;32.078;34.818;2022-09-23T07:01:59;100759.06;;;34.88;40.91
23619;BME280;18207;32.078;34.818;2022-09-23T07:04:30;100765.09;;;34.93;40.86
23619;BME280;18207;32.078;34.818;2022-09-23T07:07:01;100756.03;;;34.98;40.33
23619;BME280;18207;32.078;34.818;2022-09-23T07:09:32;100760.44;;;35.06;41.03
23619;BME280;18207;32.078;34.818;2022-09-23T07:12:05;100771.28;;;35.15;40.55
23619;BME280;18207;32.078;34.818;2022-09-23T07:14:35;100766.69;;;35.21;40.37
23619;BME280;18207;32.078;34.818;2022-09-23T07:17:06;100767.38;;;35.28;40.31
23619;BME280;18207;32.078;34.818;2022-09-23T07:19:36;100770.09;;;35.35;40.75
23619;BME280;18207;32.078;34.818;2022-09-23T07:22:07;100769.97;;;35.42;40.39
23619;BME280;18207;32.078;34.818;2022-09-23T07:24:38;100772.69;;;35.49;40.41
23619;BME280;18207;32.078;34.818;2022-09-23T07:27:11;100768.13;;;35.55;40.29
23619;BME280;18207;32.078;34.818;2022-09-23T07:29:43;100781.56;;;35.58;40.44
23619;BME280;18207;32.078;34.818;2022-09-23T07:32:16;100770.41;;;35.64;39.88
23619;BME280;18207;32.078;34.818;2022-09-23T07:34:47;100785.38;;;35.71;40.02
23619;BME280;18207;32.078;34.818;2022-09-23T07:37:18;100783.25;;;35.75;39.69
23619;BME280;18207;32.078;34.818;2022-09-23T07:39:48;100777.91;;;35.77;40.23
23619;BME280;18207;32.078;34.818;2022-09-23T07:42:22;100780.69;;;35.81;39.60
23619;BME280;18207;32.078;34.818;2022-09-23T07:44:53;100786.34;;;35.84;39.71
23619;BME280;18207;32.078;34.818;2022-09-23T07:47:24;100782.97;;;35.89;39.50
23619;BME280;18207;32.078;34.818;2022-09-23T07:49:55;100781.63;;;35.93;39.75
23619;BME280;18207;32.078;34.818;2022-09-23T07:52:25;100774.63;;;35.98;40.02
23619;BME280;18207;32.078;34.818;2022-09-23T07:54:56;100768.41;;;36.03;39.59
23619;BME280;18207;32.078;34.818;2022-09-23T07:57:29;100769.47;;;36.09;39.48
23619;BME280;18207;32.078;34.818;2022-09-23T08:00:00;100758.78;;;36.13;39.80
23619;BME280;18207;32.078;34.818;2022-09-23T08:02:31;100762.72;;;36.19;39.27
23619;BME280;18207;32.078;34.818;2022-09-23T08:05:03;100759.34;;;36.24;39.77
23619;BME280;18207;32.078;34.818;2022-09-23T08:07:34;100760.88;;;36.28;39.16
23619;BME280;18207;32.078;34.818;2022-09-23T08:10:06;100764.91;;;36.31;39.58
23619;BME280;18207;32.078;34.818;2022-09-23T08:12:39;100761.59;;;36.32;38.91
23619;BME280;18207;32.078;34.818;2022-09-23T08:15:15;100768.88;;;36.37;38.91
23619;BME280;18207;32.078;34.818;2022-09-23T08:17:46;100769.22;;;36.39;39.02
23619;BME280;18207;32.078;34.818;2022-09-23T08:20:17;100767.91;;;36.43;39.48
23619;BME280;18207;32.078;34.818;2022-09-23T08:23:01;100770.72;;;36.47;39.52
23619;BME280;18207;32.078;34.818;2022-09-23T08:25:31;100770.66;;;36.50;38.96
23619;BME280;18207;32.078;34.818;2022-09-23T08:28:04;100764.38;;;36.55;38.76
23619;BME280;18207;32.078;34.818;2022-09-23T08:30:36;100768.41;;;36.58;39.33
23619;BME280;18207;32.078;34.818;2022-09-23T08:33:08;100767.97;;;36.59;38.98
23619;BME280;18207;32.078;34.818;2022-09-23T08:35:38;100761.00;;;36.60;39.37
23619;BME280;18207;32.078;34.818;2022-09-23T08:38:08;100765.47;;;36.61;38.91
23619;BME280;18207;32.078;34.818;2022-09-23T08:40:43;100765.03;;;36.63;39.06
23619;BME280;18207;32.078;34.818;2022-09-23T08:43:23;100772.38;;;36.64;39.03
23619;BME280;18207;32.078;34.818;2022-09-23T08:46:03;100775.66;;;36.62;39.06
23619;BME280;18207;32.078;34.818;2022-09-23T08:48:41;100768.75;;;36.60;38.92
23619;BME280;18207;32.078;34.818;2022-09-23T08:51:18;100762.25;;;36.59;38.32
23619;BME280;18207;32.078;34.818;2022-09-23T08:53:52;100776.56;;;36.59;39.01
23619;BME280;18207;32.078;34.818;2022-09-23T08:56:23;100767.97;;;36.59;38.33
23619;BME280;18207;32.078;34.818;2022-09-23T08:59:04;100775.31;;;36.60;38.83
23619;BME280;18207;32.078;34.818;2022-09-23T09:01:42;100761.41;;;36.59;38.33
23619;BME280;18207;32.078;34.818;2022-09-23T09:04:17;100764.38;;;36.55;38.62
23619;BME280;18207;32.078;34.818;2022-09-23T09:06:57;100767.31;;;36.52;37.96
23619;BME280;18207;32.078;34.818;2022-09-23T09:09:56;100764.56;;;36.48;38.72
23619;BME280;18207;32.078;34.818;2022-09-23T09:12:38;100761.22;;;36.50;38.27
23619;BME280;18207;32.078;34.818;2022-09-23T09:15:18;100755.06;;;36.51;38.32
23619;BME280;18207;32.078;34.818;2022-09-23T09:18:00;100757.03;;;36.54;38.09
23619;BME280;18207;32.078;34.818;2022-09-23T09:20:39;100752.03;;;36.58;38.49
23619;BME280;18207;32.078;34.818;2022-09-23T09:23:21;100750.69;;;36.63;38.60
23619;BME280;18207;32.078;34.818;2022-09-23T09:25:53;100751.50;;;36.63;38.45
23619;BME280;18207;32.078;34.818;2022-09-23T09:28:33;100752.22;;;36.67;38.16
23619;BME280;18207;32.078;34.818;2022-09-23T09:31:25;100750.09;;;36.71;38.14
23619;BME280;18207;32.078;34.818;2022-09-23T09:34:09;100751.25;;;36.74;38.25
23619;BME280;18207;32.078;34.818;2022-09-23T09:36:49;100740.16;;;36.76;38.16
23619;BME280;18207;32.078;34.818;2022-09-23T09:39:22;100736.81;;;36.77;38.34
23619;BME280;18207;32.078;34.818;2022-09-23T09:41:53;100729.84;;;36.78;38.48
23619;BME280;18207;32.078;34.818;2022-09-23T09:44:33;100731.56;;;36.76;37.88
23619;BME280;18207;32.078;34.818;2022-09-23T09:47:26;100722.69;;;36.70;37.95
23619;BME280;18207;32.078;34.818;2022-09-23T09:50:07;100724.81;;;36.66;38.36
23619;BME280;18207;32.078;34.818;2022-09-23T09:52:38;100723.22;;;36.65;37.96
23619;BME280;18207;32.078;34.818;2022-09-23T09:55:25;100722.03;;;36.63;38.10
23619;BME280;18207;32.078;34.818;2022-09-23T09:57:59;100717.19;;;36.60;38.28
23619;BME280;18207;32.078;34.818;2022-09-23T10:00:41;100718.91;;;36.57;38.29
23619;BME280;18207;32.078;34.818;2022-09-23T10:03:41;100719.00;;;36.54;38.45
23619;BME280;18207;32.078;34.818;2022-09-23T10:06:17;100714.06;;;36.54;37.91
23619;BME280;18207;32.078;34.818;2022-09-23T10:09:11;100718.53;;;36.55;38.49
23619;BME280;18207;32.078;34.818;2022-09-23T10:12:09;100716.94;;;36.54;37.86
23619;BME280;18207;32.078;34.818;2022-09-23T10:14:47;100723.91;;;36.53;38.36
23619;BME280;18207;32.078;34.818;2022-09-23T10:17:21;100719.41;;;36.52;37.74
23619;BME280;18207;32.078;34.818;2022-09-23T10:19:59;100726.44;;;36.51;37.80
23619;BME280;18207;32.078;34.818;2022-09-23T10:22:37;100722.38;;;36.49;38.10
23619;BME280;18207;32.078;34.818;2022-09-23T10:25:19;100712.09;;;36.51;37.90
23619;BME280;18207;32.078;34.818;2022-09-23T10:27:51;100719.50;;;36.49;38.39
23619;BME280;18207;32.078;34.818;2022-09-23T10:30:25;100710.59;;;36.47;38.15
23619;BME280;18207;32.078;34.818;2022-09-23T10:32:56;100709.81;;;36.43;37.86
23619;BME280;18207;32.078;34.818;2022-09-23T10:35:30;100705.34;;;36.42;37.95
23619;BME280;18207;32.078;34.818;2022-09-23T10:38:01;100700.41;;;36.42;37.84
23619;BME280;18207;32.078;34.818;2022-09-23T10:40:36;100698.81;;;36.41;38.39
23619;BME280;18207;32.078;34.818;2022-09-23T10:43:32;100700.16;;;36.37;38.46
23619;BME280;18207;32.078;34.818;2022-09-23T10:46:49;100689.13;;;36.35;38.42
23619;BME280;18207;32.078;34.818;2022-09-23T10:50:02;100692.44;;;36.34;37.95
23619;BME280;18207;32.078;34.818;2022-09-23T10:52:56;100700.66;;;36.32;37.99
23619;BME280;18207;32.078;34.818;2022-09-23T10:55:54;100700.22;;;36.33;38.58
23619;BME280;18207;32.078;34.818;2022-09-23T10:58:54;100687.59;;;36.31;38.08
23619;BME280;18207;32.078;34.818;2022-09-23T11:01:38;100693.31;;;36.31;37.92
23619;BME280;18207;32.078;34.818;2022-09-23T11:05:02;100691.72;;;36.30;38.64
23619;BME280;18207;32.078;34.818;2022-09-23T11:07:39;100683.13;;;36.30;38.12
23619;BME280;18207;32.078;34.818;2022-09-23T11:14:17;100680.25;;;36.30;38.06
23619;BME280;18207;32.078;34.818;2022-09-23T11:17:30;100681.06;;;36.30;38.09
23619;BME280;18207;32.078;34.818;2022-09-23T11:20:45;100669.25;;;36.28;38.72
23619;BME280;18207;32.078;34.818;2022-09-23T11:26:39;100662.38;;;36.26;38.44
23619;BME280;18207;32.078;34.818;2022-09-23T11:29:50;100662.47;;;36.22;38.16
23619;BME280;18207;32.078;34.818;2022-09-23T11:35:52;100659.31;;;36.17;38.07
23619;BME280;18207;32.078;34.818;2022-09-23T11:38:33;100655.16;;;36.18;38.44
23619;BME280;18207;32.078;34.818;2022-09-23T11:41:15;100646.94;;;36.20;38.14
23619;BME280;18207;32.078;34.818;2022-09-23T11:43:52;100647.31;;;36.22;38.15
23619;BME280;18207;32.078;34.818;2022-09-23T11:46:34;100642.47;;;36.19;38.42
23619;BME280;18207;32.078;34.818;2022-09-23T11:49:13;100646.69;;;36.14;38.07
23619;BME280;18207;32.078;34.818;2022-09-23T11:52:00;100639.00;;;36.11;38.47
23619;BME280;18207;32.078;34.818;2022-09-23T11:54:39;100642.75;;;36.08;38.55
23619;BME280;18207;32.078;34.818;2022-09-23T11:57:28;100642.38;;;36.06;38.75
23619;BME280;18207;32.078;34.818;2022-09-23T12:00:19;100637.53;;;36.03;38.71
23619;BME280;18207;32.078;34.818;2022-09-23T12:03:03;100637.19;;;36.01;38.34
23619;BME280;18207;32.078;34.818;2022-09-23T12:05:42;100645.84;;;35.98;38.35
23619;BME280;18207;32.078;34.818;2022-09-23T12:08:26;100636.06;;;35.95;38.75
23619;BME280;18207;32.078;34.818;2022-09-23T12:11:05;100635.25;;;35.95;38.46
23619;BME280;18207;32.078;34.818;2022-09-23T12:13:49;100634.44;;;35.94;38.91
23619;BME280;18207;32.078;34.818;2022-09-23T12:23:22;100619.56;;;35.83;38.82
23619;BME280;18207;32.078;34.818;2022-09-23T12:25:58;100626.97;;;35.81;38.59
23619;BME280;18207;32.078;34.818;2022-09-23T12:28:34;100631.09;;;35.80;38.68
23619;BME280;18207;32.078;34.818;2022-09-23T12:31:11;100625.38;;;35.80;38.92
23619;BME280;18207;32.078;34.818;2022-09-23T12:33:49;100629.47;;;35.79;38.92
23619;BME280;18207;32.078;34.818;2022-09-23T12:36:28;100627.44;;;35.80;38.34
23619;BME280;18207;32.078;34.818;2022-09-23T12:39:12;100622.59;;;35.77;38.49
23619;BME280;18207;32.078;34.818;2022-09-23T12:41:46;100621.16;;;35.69;38.55
23619;BME280;18207;32.078;34.818;2022-09-23T12:44:31;100619.16;;;35.66;38.76
23619;BME280;18207;32.078;34.818;2022-09-23T12:47:38;100616.38;;;35.62;38.86
23619;BME280;18207;32.078;34.818;2022-09-23T12:50:50;100622.19;;;35.59;38.44
23619;BME280;18207;32.078;34.818;2022-09-23T12:53:56;100614.47;;;35.56;38.38
23619;BME280;18207;32.078;34.818;2022-09-23T12:57:00;100612.53;;;35.49;38.54
23619;BME280;18207;32.078;34.818;2022-09-23T12:59:57;100612.19;;;35.47;38.99
23619;BME280;18207;32.078;34.818;2022-09-23T13:02:33;100604.13;;;35.42;38.61
23619;BME280;18207;32.078;34.818;2022-09-23T13:05:20;100606.25;;;35.38;38.41
23619;BME280;18207;32.078;34.818;2022-09-23T13:08:18;100613.34;;;35.30;38.54
23619;BME280;18207;32.078;34.818;2022-09-23T13:10:54;100607.72;;;35.27;38.60
23619;BME280;18207;32.078;34.818;2022-09-23T13:13:34;100603.69;;;35.24;38.53
23619;BME280;18207;32.078;34.818;2022-09-23T13:16:18;100598.41;;;35.23;39.05
23619;BME280;18207;32.078;34.818;2022-09-23T13:18:51;100598.84;;;35.21;38.47
23619;BME280;18207;32.078;34.818;2022-09-23T13:22:03;100607.94;;;35.16;38.44
23619;BME280;18207;32.078;34.818;2022-09-23T13:24:43;100602.31;;;35.13;38.92
23619;BME280;18207;32.078;34.818;2022-09-23T13:27:25;100597.06;;;35.08;38.49
23619;BME280;18207;32.078;34.818;2022-09-23T13:30:04;100597.16;;;35.04;38.58
23619;BME280;18207;32.078;34.818;2022-09-23T13:32:39;100596.03;;;34.98;39.22
23619;BME280;18207;32.078;34.818;2022-09-23T13:35:23;100597.69;;;34.96;38.53
23619;BME280;18207;32.078;34.818;2022-09-23T13:37:55;100591.25;;;34.92;38.87
23619;BME280;18207;32.078;34.818;2022-09-23T13:40:28;100592.94;;;34.90;39.12
23619;BME280;18207;32.078;34.818;2022-09-23T13:43:04;100590.13;;;34.86;38.48
23619;BME280;18207;32.078;34.818;2022-09-23T13:45:40;100600.84;;;34.82;38.76
23619;BME280;18207;32.078;34.818;2022-09-23T13:48:13;100598.47;;;34.77;39.19
23619;BME280;18207;32.078;34.818;2022-09-23T13:50:48;100594.88;;;34.73;39.27
23619;BME280;18207;32.078;34.818;2022-09-23T13:53:25;100593.28;;;34.72;39.17